sensor_id;sensor_type;location;lat;lon;timestamp;P1;durP1;ratioP1;P2;durP2;ratioP2
26562;SDS011;14217;50.986;5.826;2023-04-03T00:01:59;0.40;;;0.32;;
26562;SDS011;14217;50.986;5.826;2023-04-03T00:07:01;0.55;;;0.55;;
26562;SDS011;14217;50.986;5.826;2023-04-03T00:12:03;0.38;;;0.30;;
26562;SDS011;14217;50.986;5.826;2023-04-03T00:17:06;1.42;;;0.40;;
26562;SDS011;14217;50.986;5.826;2023-04-03T00:22:09;0.47;;;0.47;;
26562;SDS011;14217;50.986;5.826;2023-04-03T00:27:11;0.98;;;0.30;;
26562;SDS011;14217;50.986;5.826;2023-04-03T00:32:13;0.90;;;0.50;;
26562;SDS011;14217;50.986;5.826;2023-04-03T00:37:15;1.48;;;0.45;;
26562;SDS011;14217;50.986;5.826;2023-04-03T00:42:17;0.55;;;0.30;;
26562;SDS011;14217;50.986;5.826;2023-04-03T00:47:19;0.30;;;0.30;;
26562;SDS011;14217;50.986;5.826;2023-04-03T00:52:22;1.10;;;0.30;;
26562;SDS011;14217;50.986;5.826;2023-04-03T00:57:27;1.25;;;0.40;;
26562;SDS011;14217;50.986;5.826;2023-04-03T01:02:32;0.85;;;0.75;;
26562;SDS011;14217;50.986;5.826;2023-04-03T01:07:34;0.73;;;0.50;;
26562;SDS011;14217;50.986;5.826;2023-04-03T01:12:39;0.60;;;0.50;;
26562;SDS011;14217;50.986;5.826;2023-04-03T01:17:51;0.75;;;0.38;;
26562;SDS011;14217;50.986;5.826;2023-04-03T01:33:22;0.30;;;0.30;;
26562;SDS011;14217;50.986;5.826;2023-04-03T01:38:24;1.20;;;0.43;;
26562;SDS011;14217;50.986;5.826;2023-04-03T01:43:26;0.90;;;0.30;;
26562;SDS011;14217;50.986;5.826;2023-04-03T01:48:28;0.80;;;0.52;;
26562;SDS011;14217;50.986;5.826;2023-04-03T01:53:31;2.03;;;0.40;;
26562;SDS011;14217;50.986;5.826;2023-04-03T01:58:32;0.40;;;0.40;;
26562;SDS011;14217;50.986;5.826;2023-04-03T02:03:34;1.05;;;0.40;;
26562;SDS011;14217;50.986;5.826;2023-04-03T02:08:37;0.43;;;0.43;;
26562;SDS011;14217;50.986;5.826;2023-04-03T02:13:39;0.50;;;0.50;;
26562;SDS011;14217;50.986;5.826;2023-04-03T02:18:41;0.50;;;0.40;;
26562;SDS011;14217;50.986;5.826;2023-04-03T02:23:44;0.30;;;0.30;;
26562;SDS011;14217;50.986;5.826;2023-04-03T02:28:46;0.63;;;0.40;;
26562;SDS011;14217;50.986;5.826;2023-04-03T02:33:48;0.45;;;0.43;;
26562;SDS011;14217;50.986;5.826;2023-04-03T02:38:50;0.75;;;0.43;;
26562;SDS011;14217;50.986;5.826;2023-04-03T02:43:52;0.30;;;0.30;;
26562;SDS011;14217;50.986;5.826;2023-04-03T02:48:54;0.40;;;0.40;;
26562;SDS011;14217;50.986;5.826;2023-04-03T02:53:56;1.58;;;0.65;;
26562;SDS011;14217;50.986;5.826;2023-04-03T02:58:58;1.08;;;0.40;;
26562;SDS011;14217;50.986;5.826;2023-04-03T03:04:01;0.77;;;0.47;;
26562;SDS011;14217;50.986;5.826;2023-04-03T03:09:03;0.30;;;0.30;;
26562;SDS011;14217;50.986;5.826;2023-04-03T03:14:06;0.65;;;0.22;;
26562;SDS011;14217;50.986;5.826;2023-04-03T03:19:08;0.30;;;0.30;;
26562;SDS011;14217;50.986;5.826;2023-04-03T03:24:10;0.30;;;0.30;;
26562;SDS011;14217;50.986;5.826;2023-04-03T03:29:13;0.70;;;0.40;;
26562;SDS011;14217;50.986;5.826;2023-04-03T03:34:15;1.00;;;0.28;;
26562;SDS011;14217;50.986;5.826;2023-04-03T03:39:17;0.82;;;0.30;;
26562;SDS011;14217;50.986;5.826;2023-04-03T03:44:19;1.20;;;0.40;;
26562;SDS011;14217;50.986;5.826;2023-04-03T03:49:22;0.65;;;0.57;;
26562;SDS011;14217;50.986;5.826;2023-04-03T03:54:24;0.60;;;0.30;;
26562;SDS011;14217;50.986;5.826;2023-04-03T03:59:26;1.25;;;0.68;;
26562;SDS011;14217;50.986;5.826;2023-04-03T04:04:28;0.45;;;0.28;;
26562;SDS011;14217;50.986;5.826;2023-04-03T04:09:30;1.27;;;0.57;;
26562;SDS011;14217;50.986;5.826;2023-04-03T04:14:32;2.42;;;0.40;;
26562;SDS011;14217;50.986;5.826;2023-04-03T04:19:34;0.40;;;0.40;;
26562;SDS011;14217;50.986;5.826;2023-04-03T04:24:36;0.45;;;0.35;;
26562;SDS011;14217;50.986;5.826;2023-04-03T04:29:40;2.30;;;0.50;;
26562;SDS011;14217;50.986;5.826;2023-04-03T04:34:42;0.35;;;0.30;;
26562;SDS011;14217;50.986;5.826;2023-04-03T04:39:44;0.43;;;0.30;;
26562;SDS011;14217;50.986;5.826;2023-04-03T04:44:46;0.52;;;0.45;;
26562;SDS011;14217;50.986;5.826;2023-04-03T04:49:48;0.57;;;0.40;;
26562;SDS011;14217;50.986;5.826;2023-04-03T04:54:50;0.60;;;0.40;;
26562;SDS011;14217;50.986;5.826;2023-04-03T04:59:52;0.60;;;0.43;;
26562;SDS011;14217;50.986;5.826;2023-04-03T05:04:54;0.55;;;0.52;;
26562;SDS011;14217;50.986;5.826;2023-04-03T05:09:56;1.00;;;0.70;;
26562;SDS011;14217;50.986;5.826;2023-04-03T05:14:58;3.58;;;1.05;;
26562;SDS011;14217;50.986;5.826;2023-04-03T05:20:00;0.40;;;0.40;;
26562;SDS011;14217;50.986;5.826;2023-04-03T05:25:02;2.35;;;0.45;;
26562;SDS011;14217;50.986;5.826;2023-04-03T05:30:04;0.90;;;0.50;;
26562;SDS011;14217;50.986;5.826;2023-04-03T05:35:07;0.85;;;0.68;;
26562;SDS011;14217;50.986;5.826;2023-04-03T05:40:09;0.93;;;0.50;;
26562;SDS011;14217;50.986;5.826;2023-04-03T05:45:11;1.10;;;0.50;;
26562;SDS011;14217;50.986;5.826;2023-04-03T05:50:13;0.60;;;0.50;;
26562;SDS011;14217;50.986;5.826;2023-04-03T05:55:16;0.52;;;0.50;;
26562;SDS011;14217;50.986;5.826;2023-04-03T06:00:18;0.50;;;0.50;;
26562;SDS011;14217;50.986;5.826;2023-04-03T06:05:20;0.98;;;0.60;;
26562;SDS011;14217;50.986;5.826;2023-04-03T06:10:22;1.40;;;0.60;;
26562;SDS011;14217;50.986;5.826;2023-04-03T06:15:24;1.13;;;0.60;;
26562;SDS011;14217;50.986;5.826;2023-04-03T06:20:27;1.33;;;0.70;;
26562;SDS011;14217;50.986;5.826;2023-04-03T06:25:29;1.40;;;0.60;;
26562;SDS011;14217;50.986;5.826;2023-04-03T06:30:31;0.57;;;0.47;;
26562;SDS011;14217;50.986;5.826;2023-04-03T06:35:33;1.60;;;0.70;;
26562;SDS011;14217;50.986;5.826;2023-04-03T06:40:36;1.73;;;0.63;;
26562;SDS011;14217;50.986;5.826;2023-04-03T06:45:39;1.08;;;0.43;;
26562;SDS011;14217;50.986;5.826;2023-04-03T06:50:41;1.48;;;0.70;;
26562;SDS011;14217;50.986;5.826;2023-04-03T06:55:43;9.13;;;0.90;;
26562;SDS011;14217;50.986;5.826;2023-04-03T07:00:45;4.60;;;1.33;;
26562;SDS011;14217;50.986;5.826;2023-04-03T07:05:48;5.82;;;1.40;;
26562;SDS011;14217;50.986;5.826;2023-04-03T07:10:50;7.68;;;1.63;;
26562;SDS011;14217;50.986;5.826;2023-04-03T07:15:52;8.35;;;1.00;;
26562;SDS011;14217;50.986;5.826;2023-04-03T07:20:55;17.85;;;2.03;;
26562;SDS011;14217;50.986;5.826;2023-04-03T07:25:57;21.60;;;1.60;;
26562;SDS011;14217;50.986;5.826;2023-04-03T07:31:03;15.93;;;1.50;;
26562;SDS011;14217;50.986;5.826;2023-04-03T07:36:08;7.85;;;1.40;;
26562;SDS011;14217;50.986;5.826;2023-04-03T07:41:15;14.95;;;2.67;;
26562;SDS011;14217;50.986;5.826;2023-04-03T07:46:19;5.22;;;1.25;;
26562;SDS011;14217;50.986;5.826;2023-04-03T07:51:22;5.13;;;1.38;;
26562;SDS011;14217;50.986;5.826;2023-04-03T07:56:26;6.15;;;1.40;;
26562;SDS011;14217;50.986;5.826;2023-04-03T08:01:28;5.60;;;1.23;;
26562;SDS011;14217;50.986;5.826;2023-04-03T08:06:30;2.45;;;0.90;;
26562;SDS011;14217;50.986;5.826;2023-04-03T08:11:46;7.55;;;1.38;;
26562;SDS011;14217;50.986;5.826;2023-04-03T08:16:48;2.05;;;0.82;;
26562;SDS011;14217;50.986;5.826;2023-04-03T08:21:50;3.40;;;0.98;;
26562;SDS011;14217;50.986;5.826;2023-04-03T08:26:52;1.25;;;0.82;;
26562;SDS011;14217;50.986;5.826;2023-04-03T08:31:54;2.95;;;0.70;;
26562;SDS011;14217;50.986;5.826;2023-04-03T08:36:56;2.47;;;0.50;;
26562;SDS011;14217;50.986;5.826;2023-04-03T08:41:59;0.82;;;0.60;;
26562;SDS011;14217;50.986;5.826;2023-04-03T08:52:36;4.47;;;0.95;;
26562;SDS011;14217;50.986;5.826;2023-04-03T08:57:44;1.10;;;0.60;;
26562;SDS011;14217;50.986;5.826;2023-04-03T09:02:49;9.35;;;1.48;;
26562;SDS011;14217;50.986;5.826;2023-04-03T09:08:09;2.15;;;0.80;;
26562;SDS011;14217;50.986;5.826;2023-04-03T09:13:19;1.33;;;0.68;;
26562;SDS011;14217;50.986;5.826;2023-04-03T09:18:32;0.52;;;0.35;;
26562;SDS011;14217;50.986;5.826;2023-04-03T09:23:43;1.00;;;0.50;;
26562;SDS011;14217;50.986;5.826;2023-04-03T09:28:48;2.10;;;0.60;;
26562;SDS011;14217;50.986;5.826;2023-04-03T09:33:57;0.57;;;0.55;;
26562;SDS011;14217;50.986;5.826;2023-04-03T09:39:09;1.83;;;0.55;;
26562;SDS011;14217;50.986;5.826;2023-04-03T09:44:21;0.55;;;0.32;;
26562;SDS011;14217;50.986;5.826;2023-04-03T09:49:27;1.73;;;0.80;;
26562;SDS011;14217;50.986;5.826;2023-04-03T09:54:36;2.50;;;0.60;;
26562;SDS011;14217;50.986;5.826;2023-04-03T09:59:56;1.05;;;0.40;;
26562;SDS011;14217;50.986;5.826;2023-04-03T10:05:01;1.05;;;0.60;;
26562;SDS011;14217;50.986;5.826;2023-04-03T10:10:17;5.70;;;0.60;;
26562;SDS011;14217;50.986;5.826;2023-04-03T10:15:21;1.42;;;0.80;;
26562;SDS011;14217;50.986;5.826;2023-04-03T10:25:32;1.38;;;0.52;;
26562;SDS011;14217;50.986;5.826;2023-04-03T10:41:29;0.63;;;0.45;;
26562;SDS011;14217;50.986;5.826;2023-04-03T10:46:45;0.47;;;0.47;;
26562;SDS011;14217;50.986;5.826;2023-04-03T10:51:54;0.73;;;0.22;;
26562;SDS011;14217;50.986;5.826;2023-04-03T10:57:08;0.73;;;0.40;;
26562;SDS011;14217;50.986;5.826;2023-04-03T11:02:24;1.60;;;0.38;;
26562;SDS011;14217;50.986;5.826;2023-04-03T11:07:46;0.50;;;0.45;;
26562;SDS011;14217;50.986;5.826;2023-04-03T11:12:54;1.67;;;0.43;;
26562;SDS011;14217;50.986;5.826;2023-04-03T11:18:06;0.17;;;0.17;;
26562;SDS011;14217;50.986;5.826;2023-04-03T11:28:39;0.60;;;0.32;;
26562;SDS011;14217;50.986;5.826;2023-04-03T11:38:51;1.58;;;0.52;;
26562;SDS011;14217;50.986;5.826;2023-04-03T11:43:57;1.33;;;0.57;;
26562;SDS011;14217;50.986;5.826;2023-04-03T11:49:04;2.28;;;0.57;;
26562;SDS011;14217;50.986;5.826;2023-04-03T11:54:35;1.15;;;0.47;;
26562;SDS011;14217;50.986;5.826;2023-04-03T11:59:46;4.07;;;0.82;;
26562;SDS011;14217;50.986;5.826;2023-04-03T12:05:24;0.55;;;0.30;;
26562;SDS011;14217;50.986;5.826;2023-04-03T12:10:26;1.38;;;0.43;;
26562;SDS011;14217;50.986;5.826;2023-04-03T12:25:53;8.48;;;0.30;;
26562;SDS011;14217;50.986;5.826;2023-04-03T12:31:02;18.10;;;0.70;;
26562;SDS011;14217;50.986;5.826;2023-04-03T12:36:08;0.88;;;0.30;;
26562;SDS011;14217;50.986;5.826;2023-04-03T12:46:39;0.20;;;0.20;;
26562;SDS011;14217;50.986;5.826;2023-04-03T12:51:46;0.52;;;0.40;;
26562;SDS011;14217;50.986;5.826;2023-04-03T12:56:48;1.83;;;0.32;;
26562;SDS011;14217;50.986;5.826;2023-04-03T13:02:01;1.23;;;0.50;;
26562;SDS011;14217;50.986;5.826;2023-04-03T13:07:04;0.32;;;0.30;;
26562;SDS011;14217;50.986;5.826;2023-04-03T13:12:10;1.20;;;0.25;;
26562;SDS011;14217;50.986;5.826;2023-04-03T13:17:14;0.43;;;0.20;;
26562;SDS011;14217;50.986;5.826;2023-04-03T13:27:35;2.45;;;0.40;;
26562;SDS011;14217;50.986;5.826;2023-04-03T13:32:37;0.20;;;0.20;;
26562;SDS011;14217;50.986;5.826;2023-04-03T13:37:40;0.20;;;0.20;;
26562;SDS011;14217;50.986;5.826;2023-04-03T13:43:14;1.40;;;0.57;;
26562;SDS011;14217;50.986;5.826;2023-04-03T13:48:20;1.00;;;0.65;;
26562;SDS011;14217;50.986;5.826;2023-04-03T13:53:25;3.80;;;0.60;;
26562;SDS011;14217;50.986;5.826;2023-04-03T13:58:30;1.42;;;0.20;;
26562;SDS011;14217;50.986;5.826;2023-04-03T14:03:45;0.93;;;0.20;;
26562;SDS011;14217;50.986;5.826;2023-04-03T14:08:53;1.40;;;0.30;;
26562;SDS011;14217;50.986;5.826;2023-04-03T14:13:55;1.23;;;0.30;;
26562;SDS011;14217;50.986;5.826;2023-04-03T14:19:02;1.00;;;0.30;;
26562;SDS011;14217;50.986;5.826;2023-04-03T14:24:04;1.35;;;0.60;;
26562;SDS011;14217;50.986;5.826;2023-04-03T14:29:09;0.80;;;0.20;;
26562;SDS011;14217;50.986;5.826;2023-04-03T14:34:12;2.67;;;0.50;;
26562;SDS011;14217;50.986;5.826;2023-04-03T14:39:18;0.55;;;0.38;;
26562;SDS011;14217;50.986;5.826;2023-04-03T14:44:20;0.75;;;0.40;;
26562;SDS011;14217;50.986;5.826;2023-04-03T14:49:24;1.23;;;0.40;;
26562;SDS011;14217;50.986;5.826;2023-04-03T14:54:29;0.88;;;0.32;;
26562;SDS011;14217;50.986;5.826;2023-04-03T14:59:31;1.65;;;0.40;;
26562;SDS011;14217;50.986;5.826;2023-04-03T15:04:34;1.02;;;0.38;;
26562;SDS011;14217;50.986;5.826;2023-04-03T15:09:36;0.57;;;0.30;;
26562;SDS011;14217;50.986;5.826;2023-04-03T15:14:38;0.40;;;0.25;;
26562;SDS011;14217;50.986;5.826;2023-04-03T15:19:53;0.17;;;0.17;;
26562;SDS011;14217;50.986;5.826;2023-04-03T15:24:55;0.80;;;0.40;;
26562;SDS011;14217;50.986;5.826;2023-04-03T15:29:58;1.20;;;0.10;;
26562;SDS011;14217;50.986;5.826;2023-04-03T15:35:00;0.52;;;0.20;;
26562;SDS011;14217;50.986;5.826;2023-04-03T15:40:04;0.52;;;0.30;;
26562;SDS011;14217;50.986;5.826;2023-04-03T15:45:07;0.60;;;0.22;;
26562;SDS011;14217;50.986;5.826;2023-04-03T15:50:10;1.75;;;0.45;;
26562;SDS011;14217;50.986;5.826;2023-04-03T15:55:12;1.75;;;0.40;;
26562;SDS011;14217;50.986;5.826;2023-04-03T16:00:14;0.63;;;0.25;;
26562;SDS011;14217;50.986;5.826;2023-04-03T16:05:17;0.60;;;0.20;;
26562;SDS011;14217;50.986;5.826;2023-04-03T16:10:20;0.28;;;0.20;;
26562;SDS011;14217;50.986;5.826;2023-04-03T16:15:23;2.70;;;0.38;;
26562;SDS011;14217;50.986;5.826;2023-04-03T16:20:26;0.30;;;0.30;;
26562;SDS011;14217;50.986;5.826;2023-04-03T16:25:29;3.15;;;0.45;;
26562;SDS011;14217;50.986;5.826;2023-04-03T16:30:32;0.90;;;0.30;;
26562;SDS011;14217;50.986;5.826;2023-04-03T16:35:35;1.88;;;0.55;;
26562;SDS011;14217;50.986;5.826;2023-04-03T16:40:37;1.85;;;0.30;;
26562;SDS011;14217;50.986;5.826;2023-04-03T16:45:39;6.90;;;0.82;;
26562;SDS011;14217;50.986;5.826;2023-04-03T16:50:45;1.95;;;0.35;;
26562;SDS011;14217;50.986;5.826;2023-04-03T16:55:49;1.13;;;0.30;;
26562;SDS011;14217;50.986;5.826;2023-04-03T17:00:52;1.15;;;0.20;;
26562;SDS011;14217;50.986;5.826;2023-04-03T17:05:55;0.50;;;0.40;;
26562;SDS011;14217;50.986;5.826;2023-04-03T17:10:57;2.78;;;0.30;;
26562;SDS011;14217;50.986;5.826;2023-04-03T17:16:00;0.40;;;0.40;;
26562;SDS011;14217;50.986;5.826;2023-04-03T17:21:06;0.57;;;0.20;;
26562;SDS011;14217;50.986;5.826;2023-04-03T17:26:09;0.93;;;0.40;;
26562;SDS011;14217;50.986;5.826;2023-04-03T17:31:11;0.17;;;0.17;;
26562;SDS011;14217;50.986;5.826;2023-04-03T17:36:13;1.15;;;0.30;;
26562;SDS011;14217;50.986;5.826;2023-04-03T17:41:15;0.95;;;0.32;;
26562;SDS011;14217;50.986;5.826;2023-04-03T17:46:17;0.73;;;0.20;;
26562;SDS011;14217;50.986;5.826;2023-04-03T17:51:20;0.90;;;0.30;;
26562;SDS011;14217;50.986;5.826;2023-04-03T17:56:24;0.63;;;0.38;;
26562;SDS011;14217;50.986;5.826;2023-04-03T18:01:28;0.52;;;0.30;;
26562;SDS011;14217;50.986;5.826;2023-04-03T18:06:33;1.23;;;0.38;;
26562;SDS011;14217;50.986;5.826;2023-04-03T18:11:40;10.18;;;1.55;;
26562;SDS011;14217;50.986;5.826;2023-04-03T18:16:43;12.27;;;2.17;;
26562;SDS011;14217;50.986;5.826;2023-04-03T18:21:45;8.93;;;1.92;;
26562;SDS011;14217;50.986;5.826;2023-04-03T18:26:52;14.18;;;2.15;;
26562;SDS011;14217;50.986;5.826;2023-04-03T18:32:01;21.52;;;1.30;;
26562;SDS011;14217;50.986;5.826;2023-04-03T18:37:06;5.05;;;1.05;;
26562;SDS011;14217;50.986;5.826;2023-04-03T18:42:10;4.15;;;0.90;;
26562;SDS011;14217;50.986;5.826;2023-04-03T18:47:15;9.38;;;1.35;;
26562;SDS011;14217;50.986;5.826;2023-04-03T18:52:17;5.60;;;0.88;;
26562;SDS011;14217;50.986;5.826;2023-04-03T18:57:21;4.57;;;0.85;;
26562;SDS011;14217;50.986;5.826;2023-04-03T19:02:23;13.85;;;1.25;;
26562;SDS011;14217;50.986;5.826;2023-04-03T19:07:26;1.48;;;0.60;;
26562;SDS011;14217;50.986;5.826;2023-04-03T19:12:28;4.32;;;0.75;;
26562;SDS011;14217;50.986;5.826;2023-04-03T19:17:31;6.88;;;0.93;;
26562;SDS011;14217;50.986;5.826;2023-04-03T19:22:33;2.58;;;0.50;;
26562;SDS011;14217;50.986;5.826;2023-04-03T19:27:35;5.20;;;1.02;;
26562;SDS011;14217;50.986;5.826;2023-04-03T19:32:38;2.58;;;0.60;;
26562;SDS011;14217;50.986;5.826;2023-04-03T19:37:41;2.55;;;0.65;;
26562;SDS011;14217;50.986;5.826;2023-04-03T19:42:43;2.83;;;0.60;;
26562;SDS011;14217;50.986;5.826;2023-04-03T19:47:45;2.83;;;0.63;;
26562;SDS011;14217;50.986;5.826;2023-04-03T19:52:47;2.20;;;1.08;;
26562;SDS011;14217;50.986;5.826;2023-04-03T19:57:50;2.17;;;0.50;;
26562;SDS011;14217;50.986;5.826;2023-04-03T20:02:52;6.05;;;1.02;;
26562;SDS011;14217;50.986;5.826;2023-04-03T20:07:54;1.88;;;0.57;;
26562;SDS011;14217;50.986;5.826;2023-04-03T20:12:57;1.40;;;0.60;;
26562;SDS011;14217;50.986;5.826;2023-04-03T20:17:59;2.38;;;0.47;;
26562;SDS011;14217;50.986;5.826;2023-04-03T20:23:01;0.93;;;0.60;;
26562;SDS011;14217;50.986;5.826;2023-04-03T20:28:03;1.55;;;0.45;;
26562;SDS011;14217;50.986;5.826;2023-04-03T20:33:06;6.68;;;1.15;;
26562;SDS011;14217;50.986;5.826;2023-04-03T20:38:08;1.42;;;0.73;;
26562;SDS011;14217;50.986;5.826;2023-04-03T20:43:10;2.42;;;0.70;;
26562;SDS011;14217;50.986;5.826;2023-04-03T20:48:13;4.00;;;1.13;;
26562;SDS011;14217;50.986;5.826;2023-04-03T20:53:15;4.63;;;1.05;;
26562;SDS011;14217;50.986;5.826;2023-04-03T20:58:19;2.30;;;0.65;;
26562;SDS011;14217;50.986;5.826;2023-04-03T21:03:22;2.20;;;0.70;;
26562;SDS011;14217;50.986;5.826;2023-04-03T21:19:49;2.92;;;0.85;;
26562;SDS011;14217;50.986;5.826;2023-04-03T21:24:51;2.55;;;0.77;;
26562;SDS011;14217;50.986;5.826;2023-04-03T21:29:53;1.25;;;0.50;;
26562;SDS011;14217;50.986;5.826;2023-04-03T21:34:56;2.95;;;0.47;;
26562;SDS011;14217;50.986;5.826;2023-04-03T21:39:58;2.63;;;0.43;;
26562;SDS011;14217;50.986;5.826;2023-04-03T21:45:01;1.52;;;0.50;;
26562;SDS011;14217;50.986;5.826;2023-04-03T21:50:03;1.17;;;0.47;;
26562;SDS011;14217;50.986;5.826;2023-04-03T21:55:05;1.25;;;0.45;;
26562;SDS011;14217;50.986;5.826;2023-04-03T22:00:09;1.48;;;0.55;;
26562;SDS011;14217;50.986;5.826;2023-04-03T22:05:11;3.33;;;0.60;;
26562;SDS011;14217;50.986;5.826;2023-04-03T22:10:13;1.13;;;0.40;;
26562;SDS011;14217;50.986;5.826;2023-04-03T22:15:16;1.05;;;0.47;;
26562;SDS011;14217;50.986;5.826;2023-04-03T22:20:18;2.47;;;0.30;;
26562;SDS011;14217;50.986;5.826;2023-04-03T22:25:21;1.05;;;0.40;;
26562;SDS011;14217;50.986;5.826;2023-04-03T22:30:23;1.05;;;0.60;;
26562;SDS011;14217;50.986;5.826;2023-04-03T22:35:25;0.80;;;0.50;;
26562;SDS011;14217;50.986;5.826;2023-04-03T22:40:28;1.40;;;0.40;;
26562;SDS011;14217;50.986;5.826;2023-04-03T22:45:30;0.50;;;0.30;;
26562;SDS011;14217;50.986;5.826;2023-04-03T22:50:32;0.70;;;0.30;;
26562;SDS011;14217;50.986;5.826;2023-04-03T22:55:37;4.47;;;0.70;;
26562;SDS011;14217;50.986;5.826;2023-04-03T23:00:39;0.88;;;0.30;;
26562;SDS011;14217;50.986;5.826;2023-04-03T23:05:42;0.40;;;0.30;;
26562;SDS011;14217;50.986;5.826;2023-04-03T23:10:44;0.40;;;0.30;;
26562;SDS011;14217;50.986;5.826;2023-04-03T23:15:53;2.63;;;0.95;;
26562;SDS011;14217;50.986;5.826;2023-04-03T23:20:59;1.75;;;0.82;;
26562;SDS011;14217;50.986;5.826;2023-04-03T23:26:02;1.65;;;0.43;;
26562;SDS011;14217;50.986;5.826;2023-04-03T23:31:04;1.02;;;0.40;;
26562;SDS011;14217;50.986;5.826;2023-04-03T23:36:10;0.50;;;0.50;;
26562;SDS011;14217;50.986;5.826;2023-04-03T23:41:13;1.85;;;0.47;;
26562;SDS011;14217;50.986;5.826;2023-04-03T23:46:15;0.52;;;0.30;;
26562;SDS011;14217;50.986;5.826;2023-04-03T23:51:18;1.02;;;0.40;;
26562;SDS011;14217;50.986;5.826;2023-04-03T23:56:21;1.42;;;0.40;;
